Terminal Aerodrome Forecast
Issued by NWS Nashville, TN

Home | Current Version | Previous Version | Text Only | Print | Product List | Glossary On
Versions: 1 2 3 4 5 6 7 8 9 10 11 12 13 14 15 16 17 18 19 20 21 22
000
FTUS44 KOHX 241700
TAFBNA
TAF
KBNA 241733Z 2418/2518 27012G20KT P6SM SCT035
      TEMPO 2418/2422 BKN035
     FM250000 24009KT P6SM FEW035
     FM251000 27003KT P6SM SKC
     FM251300 31006KT P6SM FEW050=

USA.gov is the U.S. government's official web portal to all federal, state and local government web resources and services.